createdAt,value
2018-05-06T00:01:36.223Z,40.93
2018-05-06T00:04:04.508Z,35.47
2018-05-06T00:06:32.044Z,33.93
2018-05-06T00:09:00.345Z,39.33
2018-05-06T00:11:27.877Z,49.13
2018-05-06T00:13:56.174Z,39.37
2018-05-06T00:16:23.760Z,43.80
2018-05-06T00:18:51.278Z,35.23
2018-05-06T00:21:19.593Z,39.20
2018-05-06T00:23:47.096Z,40.13
2018-05-06T00:26:14.606Z,51.90
2018-05-06T00:28:42.147Z,42.50
2018-05-06T00:31:09.655Z,42.70
2018-05-06T00:33:37.220Z,46.10
2018-05-06T00:36:04.720Z,43.27
2018-05-06T00:38:32.249Z,47.23
2018-05-06T00:40:59.763Z,50.53
2018-05-06T00:43:27.317Z,51.63
2018-05-06T00:45:54.839Z,52.00
2018-05-06T00:48:23.147Z,46.10
2018-05-06T00:50:51.430Z,43.13
2018-05-06T00:53:18.937Z,52.13
2018-05-06T00:55:46.480Z,52.03
2018-05-06T00:58:13.992Z,52.80
2018-05-06T01:00:41.532Z,51.37
2018-05-06T01:03:09.817Z,52.77
2018-05-06T01:05:37.356Z,54.60
2018-05-06T01:08:04.873Z,60.30
2018-05-06T01:10:32.427Z,58.37
2018-05-06T01:12:59.953Z,44.80
2018-05-06T01:15:27.484Z,52.00
2018-05-06T01:17:55.016Z,49.63
2018-05-06T01:20:22.541Z,47.40
2018-05-06T01:22:50.064Z,45.30
2018-05-06T01:25:17.613Z,51.73
2018-05-06T01:27:45.139Z,45.07
2018-05-06T01:30:12.665Z,47.37
2018-05-06T01:32:40.245Z,41.70
2018-05-06T01:35:07.769Z,45.83
2018-05-06T01:37:36.075Z,47.77
2018-05-06T01:40:03.604Z,47.97
2018-05-06T01:42:31.897Z,44.70
2018-05-06T01:45:00.216Z,42.93
2018-05-06T01:47:27.732Z,48.07
2018-05-06T01:49:56.020Z,46.47
2018-05-06T01:52:23.539Z,46.73
2018-05-06T01:54:51.074Z,43.73
2018-05-06T01:57:18.590Z,48.10
2018-05-06T01:59:46.142Z,48.03
2018-05-06T02:02:14.420Z,59.30
2018-05-06T02:04:41.938Z,43.90
2018-05-06T02:07:09.472Z,53.00
2018-05-06T02:09:36.998Z,44.00
2018-05-06T02:12:04.529Z,43.47
2018-05-06T02:14:32.039Z,50.63
2018-05-06T02:16:59.577Z,52.63
2018-05-06T02:19:27.121Z,44.03
2018-05-06T02:21:55.436Z,47.00
2018-05-06T02:24:22.945Z,47.47
2018-05-06T02:26:51.236Z,53.23
2018-05-06T02:29:19.563Z,55.40
2018-05-06T02:31:47.080Z,60.13
2018-05-06T02:34:14.637Z,48.87
2018-05-06T02:36:42.908Z,56.23
2018-05-06T02:39:11.188Z,47.97
2018-05-06T02:41:39.496Z,52.67
2018-05-06T02:44:07.026Z,51.27
2018-05-06T02:46:35.342Z,57.07
2018-05-06T02:49:02.866Z,53.73
2018-05-06T02:51:30.386Z,53.73
2018-05-06T02:53:57.960Z,53.33
2018-05-06T02:56:25.485Z,51.10
2018-05-06T02:58:53.020Z,52.33
2018-05-06T03:01:20.542Z,59.47
2018-05-06T03:03:48.846Z,64.23
2018-05-06T03:06:16.383Z,62.60
2018-05-06T03:08:44.677Z,58.23
2018-05-06T03:11:12.214Z,58.90
2018-05-06T03:13:40.494Z,58.30
2018-05-06T03:16:08.814Z,68.70
2018-05-06T03:18:36.339Z,51.03
2018-05-06T03:21:03.886Z,64.47
2018-05-06T03:23:32.184Z,58.70
2018-05-06T03:25:59.705Z,54.87
2018-05-06T03:28:27.243Z,63.47
2018-05-06T03:30:54.791Z,59.20
2018-05-06T03:33:22.323Z,67.80
2018-05-06T03:35:49.864Z,60.23
2018-05-06T03:38:18.148Z,54.17
2018-05-06T03:40:46.473Z,67.10
2018-05-06T03:43:14.834Z,57.87
2018-05-06T03:45:42.351Z,61.40
2018-05-06T03:48:10.672Z,62.73
2018-05-06T03:50:38.189Z,60.53
2018-05-06T03:53:06.479Z,63.13
2018-05-06T03:55:34.081Z,62.77
2018-05-06T03:58:14.165Z,64.80
2018-05-06T04:00:47.110Z,67.90
2018-05-06T04:03:14.618Z,59.83
2018-05-06T04:05:43.010Z,62.97
2018-05-06T04:08:10.488Z,52.50
2018-05-06T04:10:38.021Z,60.50
2018-05-06T04:13:06.328Z,78.97
2018-05-06T04:15:33.851Z,60.87
2018-05-06T04:18:02.167Z,57.67
2018-05-06T04:20:29.699Z,56.77
2018-05-06T04:22:57.222Z,61.27
2018-05-06T04:25:24.749Z,59.47
2018-05-06T04:27:52.281Z,61.10
2018-05-06T04:30:19.842Z,64.57
2018-05-06T04:32:47.377Z,57.13
2018-05-06T04:35:14.884Z,59.30
2018-05-06T04:37:42.433Z,67.83
2018-05-06T04:40:09.966Z,64.90
2018-05-06T04:42:38.281Z,68.13
2018-05-06T04:45:05.818Z,68.13
2018-05-06T04:47:33.354Z,58.73
2018-05-06T04:50:01.663Z,64.00
2018-05-06T04:52:29.174Z,59.90
2018-05-06T04:54:56.730Z,52.40
2018-05-06T04:57:24.249Z,52.30
2018-05-06T04:59:51.781Z,49.50
2018-05-06T05:02:19.313Z,51.73
2018-05-06T05:04:46.849Z,53.40
2018-05-06T05:07:14.408Z,52.77
2018-05-06T05:09:41.929Z,49.43
2018-05-06T05:12:09.449Z,48.50
2018-05-06T05:14:37.080Z,45.87
2018-05-06T05:17:04.615Z,46.67
2018-05-06T05:19:32.177Z,49.33
2018-05-06T05:21:59.682Z,44.60
2018-05-06T05:24:27.220Z,45.93
2018-05-06T05:26:54.755Z,40.67
2018-05-06T05:29:22.289Z,44.27
2018-05-06T05:31:50.596Z,42.90
2018-05-06T05:34:18.103Z,42.00
2018-05-06T05:36:46.417Z,46.23
2018-05-06T05:39:13.968Z,40.90
2018-05-06T05:41:41.517Z,40.83
2018-05-06T05:44:09.071Z,44.93
2018-05-06T05:46:37.365Z,41.93
2018-05-06T05:49:04.921Z,43.20
2018-05-06T05:51:32.464Z,42.40
2018-05-06T05:54:00.756Z,44.70
2018-05-06T05:56:28.300Z,48.70
2018-05-06T05:58:56.576Z,55.60
2018-05-06T06:01:24.872Z,57.60
2018-05-06T06:03:52.404Z,53.67
2018-05-06T06:06:20.684Z,50.37
2018-05-06T06:08:48.989Z,60.63
2018-05-06T06:11:16.517Z,61.73
2018-05-06T06:13:44.816Z,62.17
2018-05-06T06:16:13.353Z,58.50
2018-05-06T06:18:40.884Z,57.37
2018-05-06T06:21:08.412Z,49.07
2018-05-06T06:23:36.715Z,55.33
2018-05-06T06:26:04.263Z,53.77
2018-05-06T06:28:31.777Z,56.20
2018-05-06T06:30:59.287Z,52.97
2018-05-06T06:33:26.836Z,59.90
2018-05-06T06:35:54.344Z,58.30
2018-05-06T06:38:21.912Z,52.50
2018-05-06T06:40:49.433Z,52.93
2018-05-06T06:43:16.962Z,49.07
2018-05-06T06:45:44.514Z,55.13
2018-05-06T06:48:12.798Z,48.67
2018-05-06T06:50:40.368Z,54.63
2018-05-06T06:53:07.878Z,55.30
2018-05-06T06:55:35.388Z,56.60
2018-05-06T06:58:02.914Z,58.90
2018-05-06T07:03:05.129Z,49.43
2018-05-06T07:05:32.641Z,74.23
2018-05-06T07:08:00.161Z,63.63
2018-05-06T07:10:27.690Z,61.27
2018-05-06T07:12:55.222Z,57.37
2018-05-06T07:15:22.771Z,58.30
2018-05-06T07:17:50.283Z,50.53
2018-05-06T07:20:17.808Z,59.67
2018-05-06T07:22:46.084Z,49.70
2018-05-06T07:25:14.372Z,58.90
2018-05-06T07:27:42.668Z,60.50
2018-05-06T07:30:10.191Z,42.43
2018-05-06T07:32:37.744Z,49.13
2018-05-06T07:35:05.250Z,54.93
2018-05-06T07:37:32.801Z,52.83
2018-05-06T07:40:00.342Z,48.13
2018-05-06T07:42:28.630Z,54.37
2018-05-06T07:44:56.157Z,53.07
2018-05-06T07:47:24.443Z,46.20
2018-05-06T07:49:52.729Z,45.83
2018-05-06T07:52:21.028Z,50.83
2018-05-06T07:54:48.548Z,56.03
2018-05-06T07:57:16.082Z,43.80
2018-05-06T07:59:43.613Z,46.47
2018-05-06T08:02:11.161Z,40.80
2018-05-06T08:04:38.672Z,42.73
2018-05-06T08:07:06.195Z,51.43
2018-05-06T08:09:33.741Z,44.37
2018-05-06T08:12:01.249Z,50.47
2018-05-06T08:14:28.798Z,55.80
2018-05-06T08:16:57.105Z,50.20
2018-05-06T08:19:25.377Z,54.73
2018-05-06T08:21:53.741Z,43.40
2018-05-06T08:24:21.211Z,46.97
2018-05-06T08:26:48.736Z,47.00
2018-05-06T08:29:16.249Z,43.43
2018-05-06T08:31:44.539Z,49.00
2018-05-06T08:34:12.139Z,45.13
2018-05-06T08:36:39.661Z,37.73
2018-05-06T08:39:07.963Z,36.43
2018-05-06T08:41:35.472Z,37.97
2018-05-06T08:44:03.766Z,31.50
2018-05-06T08:46:31.305Z,33.30
2018-05-06T08:48:59.584Z,31.70
2018-05-06T08:51:27.887Z,31.67
2018-05-06T08:53:55.414Z,33.33
2018-05-06T08:56:23.686Z,28.63
2018-05-06T08:58:51.993Z,35.87
2018-05-06T09:01:19.518Z,35.47
2018-05-06T09:03:47.084Z,34.00
2018-05-06T09:06:15.394Z,39.87
2018-05-06T09:08:42.917Z,32.93
2018-05-06T09:11:10.555Z,35.73
2018-05-06T09:13:38.765Z,30.10
2018-05-06T09:16:07.076Z,32.43
2018-05-06T09:18:34.626Z,34.73
2018-05-06T09:21:02.140Z,30.80
2018-05-06T09:23:29.661Z,28.63
2018-05-06T09:25:57.172Z,23.40
2018-05-06T09:28:25.469Z,31.80
2018-05-06T09:30:53.055Z,24.20
2018-05-06T09:33:20.589Z,28.80
2018-05-06T09:35:48.118Z,25.67
2018-05-06T09:38:15.638Z,30.40
2018-05-06T09:40:43.950Z,34.60
2018-05-06T09:43:11.620Z,24.33
2018-05-06T09:45:39.904Z,24.37
2018-05-06T09:48:08.225Z,20.57
2018-05-06T09:50:35.749Z,21.80
2018-05-06T09:53:03.277Z,28.33
2018-05-06T09:55:30.788Z,28.13
2018-05-06T09:57:58.345Z,28.77
2018-05-06T10:00:25.872Z,23.87
2018-05-06T10:02:54.146Z,22.40
2018-05-06T10:05:22.473Z,18.80
2018-05-06T10:07:49.993Z,26.20
2018-05-06T10:10:18.281Z,21.03
2018-05-06T10:12:45.814Z,19.53
2018-05-06T10:15:14.089Z,16.50
2018-05-06T10:17:42.409Z,21.97
2018-05-06T10:20:09.925Z,17.77
2018-05-06T10:22:38.209Z,20.00
2018-05-06T10:25:06.507Z,16.70
2018-05-06T10:27:34.019Z,16.87
2018-05-06T10:30:01.563Z,17.97
2018-05-06T10:32:29.073Z,15.67
2018-05-06T10:34:57.349Z,14.27
2018-05-06T10:37:25.636Z,13.53
2018-05-06T10:39:53.166Z,17.23
2018-05-06T10:42:21.497Z,12.03
2018-05-06T10:44:49.518Z,18.50
2018-05-06T10:47:17.113Z,19.87
2018-05-06T10:49:44.680Z,14.37
2018-05-06T10:52:12.217Z,20.80
2018-05-06T10:54:39.759Z,19.63
2018-05-06T10:57:08.047Z,18.90
2018-05-06T10:59:36.327Z,16.37
2018-05-06T11:02:03.889Z,21.00
2018-05-06T11:04:31.409Z,21.00
2018-05-06T11:06:58.966Z,18.97
2018-05-06T11:09:26.488Z,16.90
2018-05-06T11:11:54.142Z,16.20
2018-05-06T11:14:21.712Z,17.53
2018-05-06T11:16:49.819Z,19.87
2018-05-06T11:19:18.432Z,18.50
2018-05-06T11:21:46.714Z,23.03
2018-05-06T11:24:14.449Z,20.40
2018-05-06T11:26:42.164Z,14.83
2018-05-06T11:29:09.772Z,14.20
2018-05-06T11:31:38.286Z,18.93
2018-05-06T11:34:05.959Z,12.77
2018-05-06T11:36:33.649Z,21.33
2018-05-06T11:39:01.295Z,12.80
2018-05-06T11:41:29.067Z,20.30
2018-05-06T11:43:56.861Z,11.97
2018-05-06T11:46:25.331Z,16.93
2018-05-06T11:48:53.117Z,18.43
2018-05-06T11:51:20.654Z,15.57
2018-05-06T11:53:48.194Z,21.80
2018-05-06T11:56:15.773Z,13.80
2018-05-06T11:58:43.281Z,14.43
2018-05-06T12:01:10.801Z,21.33
2018-05-06T12:03:39.132Z,18.77
2018-05-06T12:06:06.649Z,19.47
2018-05-06T12:08:34.186Z,16.10
2018-05-06T12:11:01.692Z,15.37
2018-05-06T12:13:29.211Z,18.43
2018-05-06T12:15:56.800Z,15.83
2018-05-06T12:18:24.260Z,15.40
2018-05-06T12:20:52.586Z,19.27
2018-05-06T12:23:20.104Z,14.37
2018-05-06T12:25:47.617Z,13.33
2018-05-06T12:28:15.138Z,18.97
2018-05-06T12:30:42.680Z,14.63
2018-05-06T12:33:10.954Z,15.13
2018-05-06T12:35:38.475Z,12.83
2018-05-06T12:38:06.030Z,11.17
2018-05-06T12:40:33.576Z,19.43
2018-05-06T12:43:01.087Z,10.87
2018-05-06T12:45:29.394Z,11.63
2018-05-06T12:47:56.946Z,9.70
2018-05-06T12:50:24.448Z,13.30
2018-05-06T12:52:51.964Z,7.03
2018-05-06T12:55:19.499Z,12.23
2018-05-06T12:57:47.041Z,10.53
2018-05-06T13:00:15.318Z,6.73
2018-05-06T13:02:43.611Z,7.17
2018-05-06T13:05:11.892Z,7.57
2018-05-06T13:07:39.428Z,11.03
2018-05-06T13:10:07.729Z,7.87
2018-05-06T13:12:35.251Z,6.03
2018-05-06T13:15:02.761Z,8.47
2018-05-06T13:17:30.299Z,9.30
2018-05-06T13:19:57.796Z,4.00
2018-05-06T13:22:25.331Z,6.73
2018-05-06T13:24:52.844Z,6.80
2018-05-06T13:27:20.373Z,8.50
2018-05-06T13:29:47.888Z,9.60
2018-05-06T13:32:16.188Z,6.17
2018-05-06T13:34:43.725Z,10.53
2018-05-06T13:37:11.991Z,6.40
2018-05-06T13:39:40.278Z,10.83
2018-05-06T13:42:08.569Z,8.20
2018-05-06T13:44:36.081Z,5.83
2018-05-06T13:47:03.599Z,8.63
2018-05-06T13:49:31.130Z,6.70
2018-05-06T13:51:59.410Z,10.20
2018-05-06T13:54:26.943Z,12.97
2018-05-06T13:56:54.466Z,5.83
2018-05-06T13:59:22.014Z,5.60
2018-05-06T14:01:49.522Z,8.07
2018-05-06T14:04:17.788Z,11.17
2018-05-06T14:06:45.314Z,9.83
2018-05-06T14:09:12.824Z,4.53
2018-05-06T14:11:41.121Z,6.00
2018-05-06T14:14:08.619Z,9.20
2018-05-06T14:16:36.126Z,9.53
2018-05-06T14:19:03.662Z,8.87
2018-05-06T14:21:31.176Z,4.10
2018-05-06T14:23:58.705Z,7.13
2018-05-06T14:26:26.235Z,7.10
2018-05-06T14:28:53.795Z,6.10
2018-05-06T14:31:21.315Z,4.60
2018-05-06T14:33:48.825Z,7.13
2018-05-06T14:36:17.133Z,4.23
2018-05-06T14:38:44.632Z,7.30
2018-05-06T14:41:12.151Z,7.53
2018-05-06T14:43:39.668Z,3.40
2018-05-06T14:46:07.949Z,7.83
2018-05-06T14:48:36.242Z,7.40
2018-05-06T14:51:03.781Z,7.53
2018-05-06T14:53:32.068Z,6.63
2018-05-06T14:56:00.385Z,3.50
2018-05-06T14:58:27.872Z,11.90
2018-05-06T15:00:55.394Z,13.97
2018-05-06T15:03:22.909Z,14.47
2018-05-06T15:05:50.437Z,9.83
2018-05-06T15:08:17.949Z,10.63
2018-05-06T15:10:45.521Z,15.23
2018-05-06T15:13:13.015Z,6.10
2018-05-06T15:15:40.529Z,6.47
2018-05-06T15:18:08.067Z,7.50
2018-05-06T15:20:36.342Z,6.00
2018-05-06T15:23:04.637Z,5.13
2018-05-06T15:25:32.166Z,8.23
2018-05-06T15:27:59.689Z,7.70
2018-05-06T15:30:27.221Z,10.90
2018-05-06T15:32:54.730Z,6.07
2018-05-06T15:35:22.242Z,11.20
2018-05-06T15:37:49.782Z,12.93
2018-05-06T15:40:18.058Z,7.60
2018-05-06T15:42:45.605Z,5.80
2018-05-06T15:45:13.881Z,13.60
2018-05-06T15:47:42.166Z,8.27
2018-05-06T15:50:10.521Z,8.97
2018-05-06T15:52:38.841Z,12.43
2018-05-06T15:55:06.376Z,7.80
2018-05-06T15:57:34.661Z,9.20
2018-05-06T16:00:02.980Z,9.60
2018-05-06T16:05:30.060Z,10.40
2018-05-06T16:07:57.621Z,2.97
2018-05-06T16:10:25.131Z,6.77
2018-05-06T16:12:53.420Z,4.93
2018-05-06T16:15:20.951Z,10.10
2018-05-06T16:17:48.994Z,9.73
2018-05-06T16:20:17.229Z,7.63
2018-05-06T16:22:44.737Z,4.67
2018-05-06T16:25:12.344Z,6.53
2018-05-06T16:27:39.868Z,3.70
2018-05-06T16:30:08.136Z,4.63
2018-05-06T16:32:35.662Z,10.00
2018-05-06T16:35:03.173Z,6.20
2018-05-06T16:37:31.445Z,7.00
2018-05-06T16:39:59.737Z,6.87
2018-05-06T16:42:27.249Z,5.20
2018-05-06T16:44:55.531Z,14.77
2018-05-06T16:47:23.849Z,6.33
2018-05-06T16:49:51.341Z,5.70
2018-05-06T16:52:18.840Z,4.80
2018-05-06T16:54:46.362Z,5.43
2018-05-06T16:57:13.927Z,7.07
2018-05-06T16:59:41.424Z,4.73
2018-05-06T17:02:09.725Z,13.57
2018-05-06T17:04:37.240Z,11.83
2018-05-06T17:07:04.740Z,6.90
2018-05-06T17:09:32.274Z,8.50
2018-05-06T17:12:00.548Z,8.93
2018-05-06T17:14:28.855Z,5.20
2018-05-06T17:16:56.374Z,3.67
2018-05-06T17:19:23.896Z,11.37
2018-05-06T17:21:51.407Z,6.80
2018-05-06T17:24:19.702Z,6.93
2018-05-06T17:26:47.205Z,4.10
2018-05-06T17:29:14.715Z,8.17
2018-05-06T17:31:42.249Z,9.30
2018-05-06T17:34:09.773Z,9.77
2018-05-06T17:36:37.277Z,5.70
2018-05-06T17:39:05.580Z,5.80
2018-05-06T17:41:33.095Z,6.10
2018-05-06T17:44:00.612Z,5.53
2018-05-06T17:46:29.128Z,17.90
2018-05-06T17:48:57.428Z,18.00
2018-05-06T17:51:25.692Z,13.60
2018-05-06T17:53:54.010Z,7.93
2018-05-06T17:56:21.522Z,8.10
2018-05-06T17:58:49.037Z,4.37
2018-05-06T18:01:16.572Z,3.53
2018-05-06T18:03:44.085Z,4.13
2018-05-06T18:06:11.597Z,6.40
2018-05-06T18:08:39.119Z,11.03
2018-05-06T18:11:06.625Z,7.07
2018-05-06T18:13:34.153Z,7.23
2018-05-06T18:16:02.454Z,10.30
2018-05-06T18:18:29.970Z,5.43
2018-05-06T18:20:57.494Z,11.13
2018-05-06T18:23:25.020Z,3.90
2018-05-06T18:25:52.802Z,2.57
2018-05-06T18:28:20.312Z,4.67
2018-05-06T18:30:47.836Z,21.07
2018-05-06T18:33:15.354Z,3.40
2018-05-06T18:35:42.870Z,3.13
2018-05-06T18:38:10.479Z,3.23
2018-05-06T18:40:37.941Z,3.80
2018-05-06T18:43:05.484Z,4.03
2018-05-06T18:45:33.790Z,5.40
2018-05-06T18:48:01.283Z,4.23
2018-05-06T18:50:28.784Z,9.73
2018-05-06T18:52:56.322Z,3.40
2018-05-06T18:55:24.593Z,3.40
2018-05-06T18:57:52.110Z,12.80
2018-05-06T19:00:19.636Z,6.93
2018-05-06T19:02:47.184Z,6.03
2018-05-06T19:05:15.444Z,12.73
2018-05-06T19:07:43.005Z,9.77
2018-05-06T19:10:11.291Z,2.60
2018-05-06T19:12:39.561Z,2.37
2018-05-06T19:15:07.879Z,5.90
2018-05-06T19:17:35.392Z,5.67
2018-05-06T19:20:02.927Z,10.00
2018-05-06T19:22:30.464Z,3.40
2018-05-06T19:24:57.976Z,3.30
2018-05-06T19:27:26.258Z,7.93
2018-05-06T19:29:54.558Z,3.03
2018-05-06T19:32:22.074Z,4.13
2018-05-06T19:34:49.594Z,6.37
2018-05-06T19:37:17.130Z,3.23
2018-05-06T19:39:44.702Z,6.53
2018-05-06T19:42:12.958Z,4.37
2018-05-06T19:44:41.247Z,6.13
2018-05-06T19:47:08.762Z,6.63
2018-05-06T19:49:36.266Z,3.73
2018-05-06T19:52:03.806Z,2.30
2018-05-06T19:54:32.076Z,7.03
2018-05-06T19:57:00.359Z,6.27
2018-05-06T19:59:27.900Z,6.13
2018-05-06T20:01:55.413Z,6.30
2018-05-06T20:04:22.933Z,7.10
2018-05-06T20:06:51.241Z,10.30
2018-05-06T20:09:18.761Z,6.23
2018-05-06T20:11:47.047Z,4.07
2018-05-06T20:14:14.584Z,2.03
2018-05-06T20:16:42.106Z,6.80
2018-05-06T20:19:09.626Z,6.17
2018-05-06T20:21:37.187Z,9.30
2018-05-06T20:24:04.707Z,3.03
2018-05-06T20:26:32.228Z,3.93
2018-05-06T20:28:59.776Z,3.53
2018-05-06T20:31:27.415Z,4.23
2018-05-06T20:33:55.596Z,3.50
2018-05-06T20:36:23.919Z,6.00
2018-05-06T20:38:51.433Z,6.33
2018-05-06T20:41:19.699Z,4.37
2018-05-06T20:43:48.027Z,3.13
2018-05-06T20:46:15.535Z,4.50
2018-05-06T20:48:43.816Z,2.57
2018-05-06T20:51:12.123Z,4.80
2018-05-06T20:53:39.625Z,6.13
2018-05-06T20:56:07.136Z,9.23
2018-05-06T20:58:34.712Z,6.50
2018-05-06T21:01:02.232Z,8.10
2018-05-06T21:03:30.509Z,5.13
2018-05-06T21:05:58.039Z,6.27
2018-05-06T21:08:25.554Z,11.10
2018-05-06T21:10:53.065Z,3.63
2018-05-06T21:13:21.360Z,5.17
2018-05-06T21:15:49.659Z,3.17
2018-05-06T21:18:17.171Z,3.80
2018-05-06T21:20:44.703Z,4.30
2018-05-06T21:23:12.217Z,2.90
2018-05-06T21:25:39.758Z,10.87
2018-05-06T21:28:08.062Z,4.60
2018-05-06T21:30:35.604Z,3.10
2018-05-06T21:33:03.950Z,10.13
2018-05-06T21:35:31.491Z,1.90
2018-05-06T21:37:58.988Z,7.50
2018-05-06T21:40:27.274Z,3.80
2018-05-06T21:42:54.816Z,8.50
2018-05-06T21:45:23.099Z,2.97
2018-05-06T21:47:51.384Z,12.80
2018-05-06T21:50:18.945Z,14.63
2018-05-06T21:52:47.219Z,3.23
2018-05-06T21:55:15.496Z,4.17
2018-05-06T21:57:43.808Z,1.87
2018-05-06T22:00:11.329Z,4.30
2018-05-06T22:02:39.621Z,5.77
2018-05-06T22:05:07.288Z,6.17
2018-05-06T22:07:34.882Z,4.17
2018-05-06T22:10:03.098Z,6.63
2018-05-06T22:12:31.434Z,8.40
2018-05-06T22:14:58.953Z,4.30
2018-05-06T22:17:26.480Z,9.60
2018-05-06T22:19:54.016Z,6.83
2018-05-06T22:22:21.553Z,2.90
2018-05-06T22:24:49.063Z,6.87
2018-05-06T22:27:18.117Z,7.43
2018-05-06T22:29:45.616Z,6.20
2018-05-06T22:32:13.900Z,2.37
2018-05-06T22:34:42.210Z,1.57
2018-05-06T22:37:09.724Z,2.13
2018-05-06T22:39:38.006Z,2.90
2018-05-06T22:42:06.332Z,2.20
2018-05-06T22:44:33.850Z,3.40
2018-05-06T22:47:02.169Z,17.70
2018-05-06T22:49:29.705Z,5.53
2018-05-06T22:51:57.226Z,5.70
2018-05-06T22:54:24.741Z,2.00
2018-05-06T22:56:52.306Z,2.93
2018-05-06T22:59:19.805Z,8.70
2018-05-06T23:01:47.360Z,5.17
2018-05-06T23:04:14.924Z,5.43
2018-05-06T23:06:42.431Z,5.03
2018-05-06T23:09:09.937Z,4.47
2018-05-06T23:11:37.490Z,3.50
2018-05-06T23:14:05.010Z,6.60
2018-05-06T23:16:32.538Z,6.27
2018-05-06T23:19:00.859Z,3.30
2018-05-06T23:21:28.358Z,4.70
2018-05-06T23:23:56.675Z,16.97
2018-05-06T23:26:24.219Z,6.30
2018-05-06T23:28:51.761Z,3.70
2018-05-06T23:31:20.042Z,6.23
2018-05-06T23:33:48.350Z,5.83
2018-05-06T23:36:15.884Z,3.60
2018-05-06T23:38:43.409Z,5.07
2018-05-06T23:41:10.968Z,2.63
2018-05-06T23:43:38.515Z,4.27
2018-05-06T23:46:06.034Z,5.70
2018-05-06T23:48:33.567Z,12.20
2018-05-06T23:51:01.110Z,7.93
2018-05-06T23:53:28.623Z,12.43
2018-05-06T23:55:56.173Z,2.70
2018-05-06T23:58:23.718Z,3.13
